createdAt,value
2023-03-10T18:33:51.541Z,96403.47
2023-03-10T18:36:23.345Z,96412.56
2023-03-10T18:38:54.086Z,96421.00
2023-03-10T18:41:26.334Z,96411.25
2023-03-10T18:43:56.597Z,96421.00
2023-03-10T18:46:26.488Z,96418.94
2023-03-10T18:48:57.572Z,96462.91
2023-03-10T18:51:29.205Z,96481.75
2023-03-10T18:53:58.120Z,96511.44
2023-03-10T18:56:29.561Z,96486.44
2023-03-10T18:58:59.201Z,96507.13
2023-03-10T19:01:29.310Z,96492.16
2023-03-10T19:04:00.777Z,96497.81
2023-03-10T19:06:34.932Z,96514.63
2023-03-10T19:09:08.830Z,96535.22
2023-03-10T19:11:39.772Z,96528.78
2023-03-10T19:14:09.709Z,96555.16
2023-03-10T19:16:40.689Z,96575.19
2023-03-10T19:19:10.910Z,96562.75
2023-03-10T19:21:40.972Z,96587.06
2023-03-10T19:24:11.275Z,96584.25
2023-03-10T19:26:40.648Z,96596.00
2023-03-10T19:29:10.790Z,96633.88
2023-03-10T19:31:41.361Z,96611.56
2023-03-10T19:34:12.177Z,96653.31
2023-03-10T19:36:42.730Z,96618.34
2023-03-10T19:39:14.729Z,96647.16
2023-03-10T19:41:44.125Z,96662.69
2023-03-10T19:44:14.126Z,96662.50
2023-03-10T19:46:43.683Z,96649.03
2023-03-10T19:49:13.990Z,96644.06
2023-03-10T19:51:43.044Z,96676.75
2023-03-10T19:54:12.524Z,96683.84
2023-03-10T19:56:41.581Z,96673.94
2023-03-10T19:59:10.579Z,96696.13
2023-03-10T20:01:42.157Z,96732.09
2023-03-10T20:04:14.217Z,96737.50
2023-03-10T20:06:43.521Z,96723.97
2023-03-10T20:09:12.737Z,96712.91
2023-03-10T20:11:43.378Z,96731.28
2023-03-10T20:14:12.542Z,96733.94
2023-03-10T20:16:42.016Z,96718.44
2023-03-10T20:19:10.728Z,96744.94
2023-03-10T20:21:42.347Z,96752.34
2023-03-10T20:24:12.249Z,96746.63
2023-03-10T20:26:44.470Z,96741.09
2023-03-10T20:29:15.861Z,96758.19
2023-03-10T20:31:44.609Z,96777.28
2023-03-10T20:34:22.560Z,96802.34
2023-03-10T20:36:53.885Z,96808.78
2023-03-10T20:39:23.367Z,96797.53
2023-03-10T20:41:53.652Z,96821.63
2023-03-10T20:44:23.178Z,96838.09
2023-03-10T20:46:52.745Z,96839.38
2023-03-10T20:49:21.684Z,96852.34
2023-03-10T20:51:53.782Z,96850.94
2023-03-10T20:54:23.688Z,96861.28
2023-03-10T20:56:54.005Z,96871.41
2023-03-10T20:59:23.419Z,96867.88
2023-03-10T21:01:53.589Z,96868.03
2023-03-10T21:04:23.670Z,96873.41
2023-03-10T21:06:54.493Z,96888.25
2023-03-10T21:09:24.506Z,96875.97
2023-03-10T21:11:53.445Z,96876.84
2023-03-10T21:14:21.922Z,96882.31
2023-03-10T21:16:51.810Z,96905.56
2023-03-10T21:19:21.357Z,96907.50
2023-03-10T21:21:50.466Z,96902.84
2023-03-10T21:24:20.953Z,96917.69
2023-03-10T21:26:50.917Z,96907.16
2023-03-10T21:29:19.740Z,96901.53
2023-03-10T21:31:48.172Z,96915.91
2023-03-10T21:34:16.939Z,96917.75
2023-03-10T21:36:45.857Z,96933.03
2023-03-10T21:39:15.463Z,96942.78
2023-03-10T21:41:46.490Z,96960.34
2023-03-10T21:44:15.033Z,96967.59
2023-03-10T21:46:45.100Z,96993.09
2023-03-10T21:49:14.782Z,96981.16
2023-03-10T21:51:44.617Z,96980.25
2023-03-10T21:54:13.905Z,96973.91
2023-03-10T21:56:43.421Z,96988.66
2023-03-10T21:59:13.784Z,96995.16
2023-03-10T22:01:43.793Z,96994.34
2023-03-10T22:04:15.338Z,97008.44
2023-03-10T22:06:44.146Z,97003.75
2023-03-10T22:09:14.020Z,97021.34
2023-03-10T22:11:42.978Z,97031.50
2023-03-10T22:14:14.939Z,97028.97
2023-03-10T22:16:43.915Z,97044.13
2023-03-10T22:19:14.124Z,97047.22
2023-03-10T22:21:44.585Z,97040.94
2023-03-10T22:24:14.036Z,97054.81
2023-03-10T22:26:43.509Z,97046.41
2023-03-10T22:29:13.852Z,97079.50
2023-03-10T22:31:44.016Z,97064.00
2023-03-10T22:34:13.708Z,97079.16
2023-03-10T22:36:43.766Z,97060.09
2023-03-10T22:39:13.054Z,97068.84
2023-03-10T22:41:41.733Z,97073.38
2023-03-10T22:44:12.555Z,97069.03
2023-03-10T22:46:44.750Z,97094.69
2023-03-10T22:49:15.383Z,97068.41
2023-03-10T22:51:45.500Z,97089.88
2023-03-10T22:54:15.687Z,97088.91
2023-03-10T22:56:45.081Z,97079.84
2023-03-10T22:59:16.689Z,97085.34
2023-03-10T23:01:46.215Z,97085.34
2023-03-10T23:04:16.472Z,97089.88
2023-03-10T23:06:45.909Z,97092.75
2023-03-10T23:09:15.890Z,97083.22
2023-03-10T23:11:46.059Z,97094.03
2023-03-10T23:14:16.756Z,97096.47
2023-03-10T23:16:47.228Z,97094.03
2023-03-10T23:19:17.494Z,97088.72
2023-03-10T23:21:47.117Z,97101.16
2023-03-10T23:24:17.748Z,97104.56
2023-03-10T23:26:47.337Z,97110.53
2023-03-10T23:29:18.398Z,97117.63
2023-03-10T23:31:48.491Z,97126.03
2023-03-10T23:34:18.039Z,97127.97
2023-03-10T23:36:48.115Z,97142.66
2023-03-10T23:39:17.633Z,97137.81
2023-03-10T23:41:48.060Z,97148.63
2023-03-10T23:44:21.517Z,97135.06
2023-03-10T23:46:53.557Z,97132.66
2023-03-10T23:49:24.042Z,97140.88
2023-03-10T23:51:54.561Z,97137.81
2023-03-10T23:54:24.901Z,97131.53
2023-03-10T23:56:54.373Z,97140.22
2023-03-10T23:59:25.646Z,97133.63
